Flight Track Log - Related Links

Times and Time Zones

All times are in EDT time to prevent confusion due to time zone crossing. See the UAL326 flight status page for this flight to view local times or setup timezone preferences in your user account.

Time Position Orientation Groundspeed Altitude Reporting Facility
EDT Latitude Longitude Course Direction KTS MPH feet Rate Location/Type
Tue 03:35:17 PM 28.4000 -81.3000 355° North 159 183 600  Level Orlando TRACON
Tue 03:36:11 PM 28.4000 -81.2500 90° East 203 234 2,000 1,833 Climbing Orlando TRACON
Tue 03:37:05 PM 28.4000 -81.1833 90° East 232 267 3,900 2,619 Climbing Orlando TRACON
Tue 03:38:00 PM 28.7485 -81.3500 North  Level FlightAware Approximate
Tue 03:38:17 PM 28.4500 -81.1167 50° Northeast 289 333 7,500  Level Orlando TRACON
Tue 03:39:00 PM 28.8623 -81.3529 355° North  Level FlightAware Approximate
Tue 03:39:55 PM 28.5742 -81.1339 353° North 312 359 11,700  Level Jacksonville Center
Tue 03:40:00 PM 28.9758 -81.3642 355° North  Level FlightAware Approximate
Tue 03:40:55 PM 28.6539 -81.1728 337° Northwest 306 352 14,000  Level Jacksonville Center
Tue 03:41:55 PM 28.7358 -81.2139 336° Northwest 311 358 16,800 2,800 Climbing Jacksonville Center
Tue 03:42:55 PM 28.8258 -81.2383 347° North 319 367 19,600 2,400 Climbing Jacksonville Center
Tue 03:43:55 PM 28.9242 -81.2558 351° North 329 379 21,600 1,450 Climbing Jacksonville Center
Tue 03:44:55 PM 29.0331 -81.2753 351° North 366 421 22,500 1,300 Climbing Jacksonville Center
Tue 03:45:55 PM 29.1439 -81.2950 351° North 385 443 24,200 1,450 Climbing Jacksonville Center
Tue 03:46:55 PM 29.2547 -81.3194 349° North 400 460 25,400 1,300 Climbing Jacksonville Center
Tue 03:47:55 PM 29.3739 -81.3342 354° North 411 473 26,800 1,091 Climbing Jacksonville Center
Tue 03:48:56 PM 29.4975 -81.3608 349° North 411 473 27,600 700 Climbing Jacksonville Center
Tue 03:49:55 PM 29.6208 -81.3828 351° North 416 479 28,200 800 Climbing Jacksonville Center
Tue 03:50:56 PM 29.7464 -81.4047 351° North 438 504 29,200 1,100 Climbing Jacksonville Center
Tue 03:51:55 PM 29.8761 -81.4267 352° North 454 522 30,400 1,059 Climbing Jacksonville Center
Tue 03:52:55 PM 30.0017 -81.4511 350° North 454 522 31,300 1,050 Climbing Jacksonville Center
Tue 03:53:55 PM 30.1292 -81.4733 351° North 460 529 32,500 1,250 Climbing Jacksonville Center
Tue 03:54:55 PM 30.2589 -81.4953 352° North 465 535 33,800 1,150 Climbing Jacksonville Center
Tue 03:55:55 PM 30.3739 -81.5033 357° North 465 535 34,800 600 Climbing Jacksonville Center
Tue 03:56:55 PM 30.4969 -81.4967 North 458 527 35,000 100 Climbing Jacksonville Center
Tue 03:57:55 PM 30.6219 -81.4875 North 448 516 35,000  Level Jacksonville Center
Tue 03:58:55 PM 30.7453 -81.4786 North 448 516 35,000  Level Jacksonville Center
Tue 03:59:55 PM 30.8658 -81.4500 12° North 442 509 35,000  Level Jacksonville Center
Tue 04:00:55 PM 30.9736 -81.3783 30° Northeast 432 497 35,000 -50 Level Jacksonville Center
Tue 04:01:55 PM 31.0814 -81.3061 30° Northeast 432 497 34,900 -50 Descending Jacksonville Center
Tue 04:02:55 PM 31.1869 -81.2339 30° Northeast 437 503 34,900 50 Level Jacksonville Center
Tue 04:03:55 PM 31.2944 -81.1617 30° Northeast 437 503 35,000 50 Climbing Jacksonville Center
Tue 04:04:55 PM 31.4122 -81.0767 32° Northeast 437 503 35,000  Level Jacksonville Center
Tue 04:05:55 PM 31.5178 -81.0039 30° Northeast 439 505 35,000  Level Jacksonville Center
Tue 04:06:55 PM 31.6150 -80.9361 31° Northeast 439 505 35,000 -50 Level Jacksonville Center
Tue 04:07:55 PM 31.7306 -80.8578 30° Northeast 433 498 34,900 -50 Descending Jacksonville Center
Tue 04:08:55 PM 31.8275 -80.7922 30° Northeast 440 506 34,900 50 Level Jacksonville Center
Tue 04:09:55 PM 31.9431 -80.7086 32° Northeast 440 506 35,000 50 Climbing Jacksonville Center
Tue 04:10:55 PM 32.0503 -80.6350 30° Northeast 440 506 35,000 -50 Level Jacksonville Center
Tue 04:11:55 PM 32.1556 -80.5614 31° Northeast 440 506 34,900 -50 Descending Jacksonville Center
Tue 04:12:55 PM 32.2628 -80.4875 30° Northeast 439 505 34,900  Level Jacksonville Center
Tue 04:13:55 PM 32.3678 -80.4133 31° Northeast 439 505 34,900 50 Level Jacksonville Center
Tue 04:14:55 PM 32.4747 -80.3364 31° Northeast 439 505 35,000  Climbing Jacksonville Center
Tue 04:15:55 PM 32.5797 -80.2619 31° Northeast 439 505 34,900 -50 Descending Jacksonville Center
Tue 04:16:55 PM 32.6867 -80.1875 30° Northeast 439 505 34,900  Level Jacksonville Center
Tue 04:17:55 PM 32.7914 -80.1100 32° Northeast 439 505 34,900 50 Level Jacksonville Center
Tue 04:18:55 PM 32.8961 -80.0350 31° Northeast 439 505 35,000  Climbing Jacksonville Center
Tue 04:19:55 PM 32.9992 -79.9750 26° Northeast 439 505 34,900 -50 Descending Jacksonville Center
Tue 04:20:55 PM 33.1125 -79.9142 24° Northeast 444 511 34,900  Level Jacksonville Center
Tue 04:21:55 PM 33.2261 -79.8558 23° Northeast 439 505 34,900  Level Jacksonville Center
Tue 04:22:55 PM 33.3392 -79.7922 25° Northeast 439 505 34,900  Level Jacksonville Center
Tue 04:23:55 PM 33.4503 -79.7286 26° Northeast 439 505 34,900  Level Jacksonville Center
Tue 04:24:55 PM 33.5636 -79.6647 25° Northeast 439 505 34,900  Level Jacksonville Center
Tue 04:25:55 PM 33.6786 -79.6006 25° Northeast 439 505 34,900  Level Jacksonville Center
Tue 04:26:55 PM 33.7939 -79.5364 25° Northeast 439 505 34,900  Level Jacksonville Center
Tue 04:27:55 PM 33.9089 -79.4719 25° Northeast 439 505 34,900 50 Level Jacksonville Center
Tue 04:28:55 PM 34.0283 -79.4072 24° Northeast 438 504 35,000 50 Climbing Jacksonville Center
Tue 04:29:55 PM 34.1431 -79.3397 26° Northeast 438 504 35,000  Level Jacksonville Center
Tue 04:32:10 PM 34.3769 -79.1725 31° Northeast 447 514 35,000 -31 Level Washington Center
Tue 04:33:11 PM 34.4739 -79.0736 40° Northeast 447 514 34,900  Descending Washington Center
Tue 04:34:12 PM 34.5725 -78.9769 39° Northeast 447 514 35,000 50 Climbing Washington Center
Tue 04:35:12 PM 34.6753 -78.8878 35° Northeast 452 520 35,000  Level Washington Center
Tue 04:36:13 PM 34.7756 -78.7981 36° Northeast 452 520 35,000  Level Washington Center
Tue 04:37:10 PM 34.8781 -78.7111 35° Northeast 447 514 35,000  Level Washington Center
Tue 04:38:11 PM 34.9806 -78.6239 35° Northeast 447 514 35,000  Level Washington Center
Tue 04:39:12 PM 35.0883 -78.5719 22° Northeast 435 501 35,000  Level Washington Center
Tue 04:40:10 PM 35.2039 -78.5381 13° North 409 471 35,000 -356 Level Washington Center
Tue 04:41:10 PM 35.3175 -78.5017 15° North 421 484 34,300 -800 Descending Washington Center
Tue 04:42:10 PM 35.4478 -78.4631 14° North 426 490 33,400 -942 Descending Washington Center
Tue 04:43:11 PM 35.5528 -78.4336 13° North 426 490 32,400 -934 Descending Washington Center
Tue 04:44:12 PM 35.6747 -78.3969 14° North 432 497 31,500 -843 Descending Washington Center
Tue 04:45:12 PM 35.7903 -78.3625 14° North 432 497 30,700 -915 Descending Washington Center
Tue 04:46:10 PM 35.9014 -78.3306 13° North 425 489 29,700 -1,119 Descending Washington Center
Tue 04:47:10 PM 36.0256 -78.2939 13° North 411 473 28,500 -1,041 Descending Washington Center
Tue 04:48:11 PM 36.1325 -78.2614 14° North 406 467 27,600 -744 Descending Washington Center
Tue 04:49:11 PM 36.2356 -78.2289 14° North 390 449 27,000 -298 Descending Washington Center
Tue 04:50:12 PM 36.3406 -78.1964 14° North 390 449 27,000  Level Washington Center
Tue 04:51:13 PM 36.4433 -78.1661 13° North 379 436 27,000  Level Washington Center
Tue 04:52:10 PM 36.5464 -78.1361 13° North 379 436 27,000  Level Washington Center
Tue 04:53:11 PM 36.6386 -78.1131 11° North 374 430 27,000  Level Washington Center
Tue 04:54:11 PM 36.7292 -78.1706 333° Northwest 359 413 27,000  Level Washington Center
Tue 04:55:10 PM 36.8217 -78.2306 333° Northwest 355 409 27,000  Level Washington Center
Tue 04:56:10 PM 36.9100 -78.2933 330° Northwest 370 426 27,000  Level Washington Center
Tue 04:57:11 PM 37.0128 -78.3619 332° Northwest 370 426 27,000  Level Washington Center
Tue 04:58:12 PM 37.1122 -78.3917 347° North 363 418 27,000  Level Washington Center
Tue 04:59:13 PM 37.1872 -78.3136 40° Northeast 326 375 27,000 -706 Level Washington Center
Tue 05:00:11 PM 37.2561 -78.2169 48° Northeast 340 391 25,600 -1,729 Descending Washington Center
Tue 05:01:11 PM 37.3247 -78.1200 48° Northeast 351 404 23,600 -1,289 Descending Washington Center
Tue 05:02:12 PM 37.3936 -78.0228 48° Northeast 356 410 23,000 -446 Descending Washington Center
Tue 05:03:12 PM 37.4603 -77.9256 49° Northeast 361 415 22,700 -966 Descending Washington Center
Tue 05:04:10 PM 37.5267 -77.8308 49° Northeast 361 415 21,100 -1,600 Descending Washington Center
Tue 05:05:12 PM 37.6153 -77.7783 25° Northeast 343 395 19,500 -1,561 Descending Washington Center
Tue 05:06:13 PM 37.6997 -77.7283 25° Northeast 338 389 17,900 -1,475 Descending Washington Center
Tue 05:07:10 PM 37.7817 -77.6781 26° Northeast 328 377 16,600 -1,424 Descending Washington Center
Tue 05:08:11 PM 37.8619 -77.6328 24° Northeast 317 365 15,100 -1,488 Descending Washington Center
Tue 05:09:11 PM 37.9397 -77.5875 25° Northeast 312 359 13,600 -1,361 Descending Washington Center
Tue 05:10:10 PM 38.0156 -77.5422 25° Northeast 302 348 12,400 -1,400 Descending Washington Center
Tue 05:11:11 PM 38.0892 -77.5044 22° Northeast 291 335 10,800 -1,180 Descending Washington Center
Tue 05:12:12 PM 38.1608 -77.4614 25° Northeast 285 328 10,000 -706 Descending Washington Center
Tue 05:13:10 PM 38.2322 -77.4183 25° Northeast 280 322 9,400 -814 Descending Washington Center
Tue 05:14:10 PM 38.3017 -77.3775 25° Northeast 280 322 8,400 -942 Descending Washington Center
Tue 05:15:11 PM 38.3750 -77.3581 12° North 275 316 7,500 -885 Descending Washington Center
Tue 05:16:12 PM 38.4522 -77.3628 357° North 269 310 6,600 -908 Descending Washington Center
Tue 05:17:10 PM 38.5272 -77.3644 359° North 269 310 5,700 -857 Descending Washington Center
Tue 05:18:11 PM 38.6042 -77.3689 357° North 274 315 4,900 -595 Descending Washington Center
Tue 05:19:11 PM 38.6794 -77.3656 North 269 310 4,500 -446 Descending Washington Center
Tue 05:20:12 PM 38.7503 -77.3619 North 263 303 4,000 -155 Descending Washington Center
Tue 05:22:24 PM 38.9000 -77.3500 North 229 264 4,000  Level Potomac TRACON
Tue 05:23:18 PM 38.9667 -77.3500 360° North 228 262 4,000  Level Potomac TRACON
Tue 05:24:24 PM 39.0333 -77.3500 360° North 230 265 4,000  Level Potomac TRACON
Tue 05:25:18 PM 39.0833 -77.3500 360° North 214 246 4,000  Level Potomac TRACON
Tue 05:26:18 PM 39.1500 -77.3500 360° North 197 227 4,000  Level Potomac TRACON
Tue 05:27:18 PM 39.2000 -77.3500 360° North 198 228 4,000 -50 Level Potomac TRACON
Tue 05:28:18 PM 39.1833 -77.4000 247° West 188 216 3,900 -347 Descending Potomac TRACON
Tue 05:29:19 PM 39.1333 -77.4333 207° Southwest 188 216 3,300 -744 Descending Potomac TRACON
Tue 05:30:19 PM 39.0833 -77.4500 195° South 178 205 2,400 -900 Descending Potomac TRACON
Tue 05:31:19 PM 39.0333 -77.4667 195° South 173 199 1,500 -800 Descending Potomac TRACON
Tue 05:32:19 PM 39.0000 -77.4667 180° South 137 158 800 -700 Descending Potomac TRACON
Tue 05:34:00 PM 38.9474 -77.4599 195° South  Level Estimated

Login

Don't have an account? Register now (free) for customized features, flight alerts, and more!